createdAt,value
2018-09-30T00:02:05.102Z,101770.17
2018-09-30T00:04:34.011Z,101763.25
2018-09-30T00:07:02.993Z,101766.75
2018-09-30T00:09:32.427Z,101758.91
2018-09-30T00:12:02.779Z,101752.27
2018-09-30T00:14:31.796Z,101749.09
2018-09-30T00:17:00.691Z,101741.96
2018-09-30T00:19:29.696Z,101739.89
2018-09-30T00:21:58.595Z,101738.95
2018-09-30T00:24:32.938Z,101732.41
2018-09-30T00:27:06.016Z,101732.78
2018-09-30T00:29:34.982Z,101735.00
2018-09-30T00:32:03.993Z,101726.88
2018-09-30T00:34:33.060Z,101717.22
2018-09-30T00:37:02.173Z,101714.83
2018-09-30T00:39:31.119Z,101707.41
2018-09-30T00:42:00.318Z,101704.01
2018-09-30T00:44:29.670Z,101697.87
2018-09-30T00:46:58.580Z,101696.90
2018-09-30T00:49:27.477Z,101693.95
2018-09-30T00:51:56.385Z,101693.80
2018-09-30T00:54:25.318Z,101690.16
2018-09-30T00:56:54.309Z,101688.73
2018-09-30T00:59:23.367Z,101686.47
2018-09-30T01:01:52.401Z,101679.39
2018-09-30T01:04:21.315Z,101684.45
2018-09-30T01:06:50.329Z,101680.62
2018-09-30T01:09:19.342Z,101677.42
2018-09-30T01:11:48.289Z,101676.66
2018-09-30T01:14:17.221Z,101675.18
2018-09-30T01:16:47.046Z,101664.91
2018-09-30T01:19:15.995Z,101664.36
2018-09-30T01:21:44.948Z,101665.91
2018-09-30T01:24:13.991Z,101663.84
2018-09-30T01:26:43.044Z,101655.13
2018-09-30T01:29:12.828Z,101660.03
2018-09-30T01:31:41.831Z,101663.92
2018-09-30T01:34:10.766Z,101648.87
2018-09-30T01:36:39.715Z,101653.91
2018-09-30T01:39:08.694Z,101647.11
2018-09-30T01:41:37.712Z,101639.70
2018-09-30T01:44:06.657Z,101640.39
2018-09-30T01:46:35.620Z,101637.05
2018-09-30T01:49:04.618Z,101633.73
2018-09-30T01:51:33.765Z,101639.47
2018-09-30T01:54:02.732Z,101632.44
2018-09-30T01:56:31.699Z,101623.00
2018-09-30T01:59:00.695Z,101618.07
2018-09-30T02:01:29.680Z,101616.39
2018-09-30T02:03:58.671Z,101616.42
2018-09-30T02:06:27.599Z,101612.51
2018-09-30T02:08:56.542Z,101602.52
2018-09-30T02:11:25.717Z,101603.80
2018-09-30T02:13:54.696Z,101604.76
2018-09-30T02:16:23.621Z,101606.58
2018-09-30T02:18:52.746Z,101602.20
2018-09-30T02:21:21.663Z,101608.95
2018-09-30T02:23:50.629Z,101601.71
2018-09-30T02:26:19.583Z,101605.02
2018-09-30T02:28:48.534Z,101601.01
2018-09-30T02:31:17.604Z,101599.60
2018-09-30T02:33:46.600Z,101594.73
2018-09-30T02:36:15.527Z,101590.81
2018-09-30T02:38:44.485Z,101588.92
2018-09-30T02:41:13.422Z,101587.86
2018-09-30T02:43:42.359Z,101579.87
2018-09-30T02:46:11.343Z,101576.65
2018-09-30T02:48:40.300Z,101569.69
2018-09-30T02:51:09.310Z,101571.30
2018-09-30T02:53:38.369Z,101568.13
2018-09-30T02:56:07.436Z,101564.92
2018-09-30T02:58:36.416Z,101561.98
2018-09-30T03:01:05.384Z,101562.91
2018-09-30T03:03:34.306Z,101562.21
2018-09-30T03:06:03.377Z,101557.67
2018-09-30T03:08:37.813Z,101555.19
2018-09-30T03:11:07.072Z,101546.78
2018-09-30T03:13:36.007Z,101546.06
2018-09-30T03:16:05.017Z,101538.73
2018-09-30T03:18:34.003Z,101542.41
2018-09-30T03:21:02.979Z,101543.69
2018-09-30T03:23:31.969Z,101542.63
2018-09-30T03:26:00.901Z,101540.72
2018-09-30T03:28:29.875Z,101535.67
2018-09-30T03:30:58.831Z,101527.39
2018-09-30T03:33:27.837Z,101529.11
2018-09-30T03:35:56.797Z,101530.68
2018-09-30T03:38:25.852Z,101533.50
2018-09-30T03:40:54.802Z,101522.52
2018-09-30T03:43:23.784Z,101521.17
2018-09-30T03:45:53.112Z,101515.73
2018-09-30T03:48:22.092Z,101522.58
2018-09-30T03:50:51.103Z,101520.06
2018-09-30T03:53:20.033Z,101517.16
2018-09-30T03:55:48.991Z,101517.77
2018-09-30T03:58:17.910Z,101516.75
2018-09-30T04:00:46.881Z,101512.50
2018-09-30T04:03:15.901Z,101510.45
2018-09-30T04:05:44.835Z,101506.17
2018-09-30T04:08:13.780Z,101508.20
2018-09-30T04:10:42.850Z,101503.47
2018-09-30T04:13:11.979Z,101496.48
2018-09-30T04:15:41.222Z,101500.73
2018-09-30T04:18:10.192Z,101507.69
2018-09-30T04:20:39.135Z,101493.50
2018-09-30T04:23:08.069Z,101495.41
2018-09-30T04:25:37.048Z,101493.49
2018-09-30T04:28:06.353Z,101492.31
2018-09-30T04:30:35.286Z,101493.91
2018-09-30T04:33:04.389Z,101493.75
2018-09-30T04:35:33.399Z,101495.92
2018-09-30T04:38:02.309Z,101488.37
2018-09-30T04:40:31.435Z,101492.39
2018-09-30T04:43:00.391Z,101483.64
2018-09-30T04:45:29.319Z,101482.38
2018-09-30T04:47:58.276Z,101481.84
2018-09-30T04:50:27.205Z,101481.34
2018-09-30T04:52:56.126Z,101479.36
2018-09-30T04:55:25.063Z,101468.33
2018-09-30T04:57:53.984Z,101474.08
2018-09-30T05:00:22.899Z,101467.47
2018-09-30T05:02:51.873Z,101465.41
2018-09-30T05:05:20.831Z,101466.80
2018-09-30T05:07:49.750Z,101472.25
2018-09-30T05:10:18.885Z,101465.89
2018-09-30T05:12:47.827Z,101462.98
2018-09-30T05:15:16.757Z,101458.55
2018-09-30T05:17:45.738Z,101458.50
2018-09-30T05:20:14.845Z,101465.97
2018-09-30T05:22:43.771Z,101472.20
2018-09-30T05:25:12.680Z,101469.84
2018-09-30T05:27:41.624Z,101472.88
2018-09-30T05:30:10.606Z,101471.34
2018-09-30T05:32:39.579Z,101469.03
2018-09-30T05:35:08.505Z,101458.43
2018-09-30T05:37:37.493Z,101456.20
2018-09-30T05:40:06.639Z,101459.09
2018-09-30T05:42:35.634Z,101458.91
2018-09-30T05:45:04.615Z,101457.23
2018-09-30T05:47:33.593Z,101459.91
2018-09-30T05:50:02.526Z,101449.27
2018-09-30T05:52:31.470Z,101454.61
2018-09-30T05:55:00.455Z,101453.28
2018-09-30T05:57:29.389Z,101455.94
2018-09-30T05:59:58.339Z,101446.70
2018-09-30T06:02:27.356Z,101448.83
2018-09-30T06:04:56.297Z,101446.28
2018-09-30T06:07:25.215Z,101455.25
2018-09-30T06:09:54.146Z,101455.55
2018-09-30T06:12:23.126Z,101453.55
2018-09-30T06:14:52.037Z,101454.22
2018-09-30T06:17:25.302Z,101451.75
2018-09-30T06:19:54.261Z,101449.42
2018-09-30T06:22:23.253Z,101444.81
2018-09-30T06:24:52.171Z,101442.14
2018-09-30T06:27:21.156Z,101443.34
2018-09-30T06:29:50.126Z,101440.68
2018-09-30T06:32:19.054Z,101434.72
2018-09-30T06:34:48.029Z,101428.66
2018-09-30T06:37:17.087Z,101431.33
2018-09-30T06:39:46.070Z,101433.11
2018-09-30T06:42:15.040Z,101431.10
2018-09-30T06:44:44.029Z,101426.64
2018-09-30T06:47:12.998Z,101431.49
2018-09-30T06:49:41.960Z,101428.45
2018-09-30T06:52:10.967Z,101426.17
2018-09-30T06:54:39.920Z,101427.33
2018-09-30T06:57:08.914Z,101429.52
2018-09-30T06:59:37.870Z,101424.58
2018-09-30T07:02:07.024Z,101415.28
2018-09-30T07:04:35.981Z,101419.19
2018-09-30T07:07:04.952Z,101422.47
2018-09-30T07:09:33.918Z,101421.64
2018-09-30T07:12:03.799Z,101423.09
2018-09-30T07:14:32.862Z,101416.81
2018-09-30T07:17:01.980Z,101414.87
2018-09-30T07:19:30.900Z,101419.39
2018-09-30T07:21:59.825Z,101418.55
2018-09-30T07:24:28.833Z,101419.39
2018-09-30T07:26:57.800Z,101414.45
2018-09-30T07:29:26.736Z,101408.89
2018-09-30T07:31:55.820Z,101414.20
2018-09-30T07:34:25.245Z,101418.12
2018-09-30T07:36:54.154Z,101415.23
2018-09-30T07:39:23.149Z,101409.56
2018-09-30T07:41:52.137Z,101404.81
2018-09-30T07:44:21.090Z,101404.16
2018-09-30T07:46:50.083Z,101404.84
2018-09-30T07:49:18.949Z,101402.16
2018-09-30T07:51:47.950Z,101399.34
2018-09-30T07:54:16.873Z,101395.53
2018-09-30T07:56:45.817Z,101395.70
2018-09-30T07:59:14.799Z,101399.72
2018-09-30T08:01:43.738Z,101399.48
2018-09-30T08:04:12.653Z,101401.38
2018-09-30T08:06:41.621Z,101398.39
2018-09-30T08:09:10.721Z,101402.68
2018-09-30T08:11:39.687Z,101401.55
2018-09-30T08:14:08.733Z,101410.37
2018-09-30T08:16:37.837Z,101401.16
2018-09-30T08:19:06.668Z,101411.73
2018-09-30T08:21:35.621Z,101399.37
2018-09-30T08:24:04.614Z,101391.78
2018-09-30T08:26:33.631Z,101381.22
2018-09-30T08:29:02.659Z,101378.08
2018-09-30T08:31:31.833Z,101372.45
2018-09-30T08:34:00.798Z,101372.31
2018-09-30T08:36:29.772Z,101363.45
2018-09-30T08:38:58.778Z,101363.00
2018-09-30T08:41:27.735Z,101362.56
2018-09-30T08:43:56.858Z,101360.07
2018-09-30T08:46:25.782Z,101348.25
2018-09-30T08:48:54.767Z,101344.55
2018-09-30T08:51:23.698Z,101348.08
2018-09-30T08:53:52.729Z,101354.80
2018-09-30T08:56:21.670Z,101364.27
2018-09-30T08:58:50.605Z,101366.34
2018-09-30T09:01:19.581Z,101359.48
2018-09-30T09:03:48.561Z,101370.67
2018-09-30T09:06:17.513Z,101363.81
2018-09-30T09:08:46.454Z,101370.97
2018-09-30T09:11:15.486Z,101365.08
2018-09-30T09:13:44.459Z,101364.10
2018-09-30T09:16:13.556Z,101356.31
2018-09-30T09:18:42.547Z,101354.06
2018-09-30T09:21:11.469Z,101352.50
2018-09-30T09:23:40.448Z,101349.97
2018-09-30T09:26:09.373Z,101336.80
2018-09-30T09:28:38.335Z,101334.02
2018-09-30T09:31:07.277Z,101339.15
2018-09-30T09:33:36.240Z,101329.22
2018-09-30T09:36:05.297Z,101330.43
2018-09-30T09:38:34.272Z,101327.94
2018-09-30T09:41:03.321Z,101324.09
2018-09-30T09:43:32.319Z,101318.49
2018-09-30T09:46:01.318Z,101316.88
2018-09-30T09:48:30.249Z,101306.20
2018-09-30T09:50:59.237Z,101323.88
2018-09-30T09:53:28.212Z,101318.81
2018-09-30T09:55:57.191Z,101312.23
2018-09-30T09:58:26.180Z,101306.91
2018-09-30T10:00:55.257Z,101309.93
2018-09-30T10:03:24.580Z,101309.56
2018-09-30T10:05:53.574Z,101312.53
2018-09-30T10:08:22.608Z,101313.23
2018-09-30T10:10:51.659Z,101295.44
2018-09-30T10:13:20.718Z,101292.49
2018-09-30T10:15:49.862Z,101288.75
2018-09-30T10:18:18.850Z,101284.89
2018-09-30T10:20:47.850Z,101281.41
2018-09-30T10:23:16.875Z,101277.17
2018-09-30T10:25:45.828Z,101269.20
2018-09-30T10:28:14.834Z,101261.14
2018-09-30T10:30:45.207Z,101260.52
2018-09-30T10:33:14.177Z,101252.55
2018-09-30T10:35:43.187Z,101247.19
2018-09-30T10:38:12.279Z,101235.75
2018-09-30T10:40:41.278Z,101237.84
2018-09-30T10:43:12.402Z,101229.42
2018-09-30T10:45:44.415Z,101224.96
2018-09-30T10:48:13.362Z,101211.19
2018-09-30T10:50:42.325Z,101211.00
2018-09-30T10:53:11.231Z,101201.75
2018-09-30T10:55:40.165Z,101201.81
2018-09-30T10:58:09.134Z,101209.78
2018-09-30T11:00:38.084Z,101206.95
2018-09-30T11:03:07.044Z,101197.02
2018-09-30T11:05:35.949Z,101194.67
2018-09-30T11:08:04.891Z,101193.88
2018-09-30T11:10:33.839Z,101186.77
2018-09-30T11:13:02.773Z,101184.50
2018-09-30T11:15:31.756Z,101175.25
2018-09-30T11:18:00.755Z,101184.55
2018-09-30T11:20:29.674Z,101184.98
2018-09-30T11:22:58.761Z,101181.41
2018-09-30T11:25:27.690Z,101173.98
2018-09-30T11:27:56.637Z,101165.08
2018-09-30T11:30:25.583Z,101166.44
2018-09-30T11:32:54.552Z,101165.55
2018-09-30T11:35:23.470Z,101161.73
2018-09-30T11:37:52.421Z,101160.39
2018-09-30T11:40:21.358Z,101149.17
2018-09-30T11:42:50.456Z,101149.69
2018-09-30T11:45:19.427Z,101143.90
2018-09-30T11:47:48.386Z,101136.70
2018-09-30T11:50:17.372Z,101132.34
2018-09-30T11:52:46.421Z,101127.24
2018-09-30T11:55:15.323Z,101123.27
2018-09-30T11:57:44.327Z,101136.48
2018-09-30T12:00:13.213Z,101131.61
2018-09-30T12:02:42.187Z,101123.12
2018-09-30T12:05:11.311Z,101130.97
2018-09-30T12:07:40.305Z,101122.36
2018-09-30T12:10:09.285Z,101115.19
2018-09-30T12:12:38.213Z,101106.29
2018-09-30T12:15:07.160Z,101103.81
2018-09-30T12:17:36.139Z,101095.16
2018-09-30T12:20:05.167Z,101089.92
2018-09-30T12:22:34.118Z,101090.30
2018-09-30T12:25:03.065Z,101082.56
2018-09-30T12:27:32.049Z,101092.10
2018-09-30T12:30:00.981Z,101087.79
2018-09-30T12:32:29.957Z,101081.17
2018-09-30T12:34:58.888Z,101079.86
2018-09-30T12:37:27.854Z,101084.78
2018-09-30T12:39:56.940Z,101073.59
2018-09-30T12:42:25.909Z,101059.83
2018-09-30T12:44:54.833Z,101056.66
2018-09-30T12:47:23.826Z,101062.44
2018-09-30T12:49:52.737Z,101071.85
2018-09-30T12:52:21.685Z,101061.56
2018-09-30T12:54:50.666Z,101057.06
2018-09-30T12:57:19.629Z,101057.63
2018-09-30T12:59:48.594Z,101063.55
2018-09-30T13:02:17.565Z,101057.01
2018-09-30T13:04:46.530Z,101053.34
2018-09-30T13:07:15.454Z,101051.66
2018-09-30T13:09:44.368Z,101050.36
2018-09-30T13:12:14.079Z,101045.48
2018-09-30T13:14:43.873Z,101047.31
2018-09-30T13:17:12.934Z,101044.66
2018-09-30T13:19:41.876Z,101042.45
2018-09-30T13:22:10.848Z,101045.09
2018-09-30T13:24:39.765Z,101037.85
2018-09-30T13:27:08.720Z,101034.83
2018-09-30T13:29:37.662Z,101036.19
2018-09-30T13:32:06.604Z,101034.07
2018-09-30T13:34:35.580Z,101035.35
2018-09-30T13:37:04.575Z,101030.72
2018-09-30T13:39:33.499Z,101036.39
2018-09-30T13:42:02.476Z,101038.34
2018-09-30T13:44:31.414Z,101036.16
2018-09-30T13:47:00.513Z,101035.35
2018-09-30T13:49:29.431Z,101031.56
2018-09-30T13:51:58.373Z,101028.34
2018-09-30T13:54:27.324Z,101036.46
2018-09-30T13:56:56.236Z,101032.08
2018-09-30T13:59:25.198Z,101023.20
2018-09-30T14:01:54.238Z,101022.94
2018-09-30T14:04:23.188Z,101018.86
2018-09-30T14:06:52.149Z,101013.17
2018-09-30T14:09:21.126Z,101015.63
2018-09-30T14:11:50.067Z,101020.30
2018-09-30T14:14:19.033Z,101012.67
2018-09-30T14:16:48.410Z,101006.73
2018-09-30T14:19:17.338Z,101013.74
2018-09-30T14:21:46.257Z,101005.35
2018-09-30T14:24:15.305Z,101007.27
2018-09-30T14:26:44.242Z,101007.27
2018-09-30T14:29:13.175Z,101003.70
2018-09-30T14:31:42.114Z,101001.34
2018-09-30T14:34:11.091Z,101006.45
2018-09-30T14:36:40.015Z,101004.80
2018-09-30T14:39:11.232Z,101007.77
2018-09-30T14:41:40.194Z,101006.16
2018-09-30T14:44:09.716Z,101011.85
2018-09-30T14:46:39.233Z,101015.08
2018-09-30T14:49:08.199Z,101014.83
2018-09-30T14:51:37.186Z,101003.18
2018-09-30T14:54:06.292Z,101005.34
2018-09-30T14:56:35.093Z,100998.30
2018-09-30T14:59:04.076Z,100990.17
2018-09-30T15:01:33.047Z,100988.80
2018-09-30T15:04:02.010Z,100986.09
2018-09-30T15:06:30.966Z,100990.14
2018-09-30T15:08:59.945Z,100996.68
2018-09-30T15:11:28.948Z,100981.02
2018-09-30T15:13:57.937Z,100978.28
2018-09-30T15:16:26.916Z,100978.28
2018-09-30T15:18:55.874Z,100976.94
2018-09-30T15:21:24.843Z,100971.76
2018-09-30T15:23:53.862Z,100977.69
2018-09-30T15:26:22.863Z,100974.44
2018-09-30T15:28:51.873Z,100969.27
2018-09-30T15:31:20.916Z,100971.42
2018-09-30T15:33:49.914Z,100972.28
2018-09-30T15:36:18.912Z,100966.86
2018-09-30T15:38:48.585Z,100964.16
2018-09-30T15:41:17.552Z,100969.59
2018-09-30T15:43:46.564Z,100967.94
2018-09-30T15:46:15.555Z,100966.59
2018-09-30T15:48:44.499Z,100966.08
2018-09-30T15:51:13.469Z,100964.39
2018-09-30T15:53:42.445Z,100962.51
2018-09-30T15:56:11.407Z,100960.59
2018-09-30T15:58:40.364Z,100965.98
2018-09-30T16:01:09.413Z,100962.52
2018-09-30T16:03:38.439Z,100956.83
2018-09-30T16:06:07.371Z,100963.52
2018-09-30T16:08:36.358Z,100970.02
2018-09-30T16:11:05.325Z,100958.92
2018-09-30T16:13:34.265Z,100957.82
2018-09-30T16:16:03.217Z,100952.40
2018-09-30T16:18:32.203Z,100951.34
2018-09-30T16:21:01.151Z,100957.22
2018-09-30T16:23:30.067Z,100948.88
2018-09-30T16:25:59.073Z,100949.98
2018-09-30T16:28:27.997Z,100950.41
2018-09-30T16:30:56.902Z,100945.84
2018-09-30T16:33:25.849Z,100950.95
2018-09-30T16:35:54.856Z,100948.80
2018-09-30T16:38:23.851Z,100951.23
2018-09-30T16:40:52.836Z,100946.87
2018-09-30T16:43:21.775Z,100955.19
2018-09-30T16:45:50.774Z,100954.36
2018-09-30T16:48:19.738Z,100948.08
2018-09-30T16:50:48.753Z,100950.25
2018-09-30T16:53:17.717Z,100954.27
2018-09-30T16:55:46.682Z,100955.86
2018-09-30T16:58:15.619Z,100961.50
2018-09-30T17:00:44.583Z,100966.37
2018-09-30T17:03:13.524Z,100957.12
2018-09-30T17:05:42.485Z,100960.80
2018-09-30T17:08:11.426Z,100967.88
2018-09-30T17:10:40.392Z,100969.79
2018-09-30T17:13:09.393Z,100969.70
2018-09-30T17:15:38.315Z,100973.99
2018-09-30T17:18:07.266Z,100968.78
2018-09-30T17:20:36.237Z,100975.81
2018-09-30T17:23:05.229Z,100969.56
2018-09-30T17:25:34.215Z,100967.43
2018-09-30T17:28:03.191Z,100973.13
2018-09-30T17:30:32.165Z,100966.81
2018-09-30T17:33:01.161Z,100973.00
2018-09-30T17:35:30.130Z,100972.39
2018-09-30T17:37:59.184Z,100961.88
2018-09-30T17:40:28.120Z,100971.05
2018-09-30T17:42:57.155Z,100967.81
2018-09-30T17:45:26.094Z,100961.81
2018-09-30T17:47:55.227Z,100959.94
2018-09-30T17:50:24.239Z,100970.47
2018-09-30T17:52:53.237Z,100968.16
2018-09-30T17:55:22.164Z,100961.81
2018-09-30T17:57:55.565Z,100959.92
2018-09-30T18:00:25.569Z,100962.30
2018-09-30T18:02:54.521Z,100964.87
2018-09-30T18:05:23.523Z,100964.09
2018-09-30T18:07:52.521Z,100975.17
2018-09-30T18:10:21.490Z,100969.49
2018-09-30T18:12:51.499Z,100970.43
2018-09-30T18:15:20.469Z,100963.22
2018-09-30T18:17:49.435Z,100964.73
2018-09-30T18:20:18.421Z,100960.80
2018-09-30T18:22:47.344Z,100954.75
2018-09-30T18:25:16.364Z,100959.52
2018-09-30T18:27:45.287Z,100953.48
2018-09-30T18:30:14.274Z,100952.03
2018-09-30T18:32:43.234Z,100955.75
2018-09-30T18:35:12.218Z,100952.19
2018-09-30T18:37:41.220Z,100939.30
2018-09-30T18:40:10.241Z,100944.51
2018-09-30T18:42:39.152Z,100944.95
2018-09-30T18:45:08.134Z,100944.73
2018-09-30T18:47:37.083Z,100941.70
2018-09-30T18:50:06.090Z,100939.36
2018-09-30T18:52:35.093Z,100943.08
2018-09-30T18:55:04.101Z,100936.33
2018-09-30T18:57:33.127Z,100937.43
2018-09-30T19:00:02.157Z,100935.72
2018-09-30T19:02:31.186Z,100933.44
2018-09-30T19:05:00.168Z,100931.89
2018-09-30T19:07:29.109Z,100925.33
2018-09-30T19:09:58.164Z,100930.05
2018-09-30T19:12:27.139Z,100926.48
2018-09-30T19:14:56.189Z,100919.31
2018-09-30T19:17:25.100Z,100919.41
2018-09-30T19:19:54.093Z,100915.18
2018-09-30T19:22:23.090Z,100911.87
2018-09-30T19:24:52.074Z,100918.92
2018-09-30T19:27:21.072Z,100915.12
2018-09-30T19:29:50.164Z,100911.53
2018-09-30T19:32:19.107Z,100909.45
2018-09-30T19:34:48.100Z,100904.81
2018-09-30T19:37:17.028Z,100909.14
2018-09-30T19:39:45.980Z,100899.05
2018-09-30T19:42:15.004Z,100900.41
2018-09-30T19:44:44.022Z,100897.77
2018-09-30T19:47:12.974Z,100894.16
2018-09-30T19:49:42.028Z,100893.67
2018-09-30T19:52:11.688Z,100891.66
2018-09-30T19:54:40.836Z,100894.22
2018-09-30T19:57:09.775Z,100879.43
2018-09-30T19:59:38.744Z,100886.34
2018-09-30T20:02:08.186Z,100875.05
2018-09-30T20:04:37.219Z,100876.88
2018-09-30T20:07:06.186Z,100873.97
2018-09-30T20:09:35.173Z,100869.52
2018-09-30T20:12:04.054Z,100869.24
2018-09-30T20:14:33.070Z,100858.98
2018-09-30T20:17:02.104Z,100853.11
2018-09-30T20:19:31.156Z,100855.25
2018-09-30T20:22:00.095Z,100852.48
2018-09-30T20:24:29.138Z,100853.01
2018-09-30T20:26:58.078Z,100851.87
2018-09-30T20:29:27.068Z,100851.94
2018-09-30T20:31:56.036Z,100849.99
2018-09-30T20:34:25.149Z,100856.14
2018-09-30T20:36:54.099Z,100850.48
2018-09-30T20:39:23.060Z,100847.34
2018-09-30T20:41:51.945Z,100847.00
2018-09-30T20:44:20.894Z,100846.03
2018-09-30T20:46:49.867Z,100848.62
2018-09-30T20:49:18.818Z,100852.66
2018-09-30T20:51:47.748Z,100849.81
2018-09-30T20:54:17.048Z,100851.55
2018-09-30T20:56:46.378Z,100848.52
2018-09-30T20:59:15.319Z,100845.75
2018-09-30T21:01:44.247Z,100849.76
2018-09-30T21:04:13.193Z,100839.05
2018-09-30T21:06:43.355Z,100845.23
2018-09-30T21:09:14.324Z,100843.65
2018-09-30T21:11:43.329Z,100840.27
2018-09-30T21:14:12.296Z,100833.07
2018-09-30T21:16:41.250Z,100832.77
2018-09-30T21:19:10.203Z,100830.45
2018-09-30T21:21:39.133Z,100829.48
2018-09-30T21:24:08.112Z,100826.58
2018-09-30T21:26:37.012Z,100829.07
2018-09-30T21:29:05.908Z,100819.81
2018-09-30T21:31:34.871Z,100816.42
2018-09-30T21:34:03.873Z,100816.61
2018-09-30T21:36:32.834Z,100822.98
2018-09-30T21:39:01.921Z,100819.84
2018-09-30T21:41:31.680Z,100817.52
2018-09-30T21:44:00.630Z,100821.77
2018-09-30T21:46:29.556Z,100822.11
2018-09-30T21:48:58.505Z,100823.27
2018-09-30T21:51:27.463Z,100814.90
2018-09-30T21:53:56.425Z,100816.53
2018-09-30T21:56:25.345Z,100809.37
2018-09-30T21:58:54.420Z,100811.22
2018-09-30T22:01:23.652Z,100811.66
2018-09-30T22:03:56.481Z,100808.03
2018-09-30T22:06:27.314Z,100804.89
2018-09-30T22:09:56.426Z,100802.33
2018-09-30T22:12:25.397Z,100806.69
2018-09-30T22:14:57.187Z,100803.67
2018-09-30T22:17:26.970Z,100800.39
2018-09-30T22:19:55.931Z,100805.02
2018-09-30T22:22:24.876Z,100800.39
2018-09-30T22:24:57.428Z,100789.86
2018-09-30T22:27:27.308Z,100787.01
2018-09-30T22:29:58.055Z,100796.11
2018-09-30T22:32:27.841Z,100793.66
2018-09-30T22:34:57.747Z,100789.94
2018-09-30T22:37:26.729Z,100788.75
2018-09-30T22:39:55.706Z,100791.91
2018-09-30T22:42:24.808Z,100787.88
2018-09-30T22:44:53.839Z,100789.17
2018-09-30T22:47:22.911Z,100779.60
2018-09-30T22:49:51.992Z,100783.73
2018-09-30T22:52:20.995Z,100783.61
2018-09-30T22:54:49.936Z,100773.47
2018-09-30T22:57:18.876Z,100786.18
2018-09-30T22:59:47.868Z,100781.70
2018-09-30T23:02:16.785Z,100783.20
2018-09-30T23:04:45.837Z,100775.37
2018-09-30T23:07:14.701Z,100776.75
2018-09-30T23:09:43.626Z,100769.47
2018-09-30T23:12:12.560Z,100776.00
2018-09-30T23:14:41.547Z,100770.88
2018-09-30T23:17:10.808Z,100774.48
2018-09-30T23:19:40.492Z,100765.16
2018-09-30T23:22:09.404Z,100763.92
2018-09-30T23:24:38.324Z,100766.98
2018-09-30T23:27:07.283Z,100764.69
2018-09-30T23:29:36.256Z,100759.58
2018-09-30T23:32:05.165Z,100762.63
2018-09-30T23:34:34.084Z,100759.77
2018-09-30T23:37:03.093Z,100763.14
2018-09-30T23:39:31.995Z,100761.88
2018-09-30T23:42:00.942Z,100764.45
2018-09-30T23:44:29.876Z,100751.20
2018-09-30T23:46:58.865Z,100753.53
2018-09-30T23:49:27.921Z,100755.27
2018-09-30T23:51:56.840Z,100741.63
2018-09-30T23:54:25.786Z,100755.94
2018-09-30T23:56:54.729Z,100749.64
2018-09-30T23:59:23.632Z,100747.56
